Weather at Davis Monthan Air Force Base

Public forecast

Using degrees Fahrenheit for public forecast. Weather courtesy of forecast.io.

Current aviation weather report (METAR) for Davis Monthan Air Force Base

2024/05/24 13:55 (retrieved 23 minutes ago)

KDMA 241355Z AUTO 16006KT 10SM CLR 20/M04 A2990 RMK AO2 SLP125 T01981045

Aviation forecast (TAF) for Davis Monthan Air Force Base

2024/05/24 11:57 (retrieved 2 hours ago)

TAF KDMA 241100Z 2411/2517 VRB06KT 9999 SCT250 QNH2980INS BECMG 2420/2421 26012G18KT 9999 SKC QNH2974INS BECMG 2502/2503 VRB06KT 9999 BKN270 QNH2983INS TX36/2422Z TN16/2412Z